x

Seal Rocks - Between Montague And Hinchinbrook Islands, Ak (46061) Wave Buoy

10:50pm - Sat 28th Feb 2015 All times are AKST. -9 hours from GMT.

  • Sig Wave height 2.0ft
  • Swell Direction
  • Peak Period 8s
  • Average Period 6s
  • Wind
    11mph, 13mph gusts
  • Sea Temp 42°f
  • Air Temp 39°f
  • Sea Pressure 1027.2mb
  • Seal Rocks - Between Montague And Hinchinbrook Islands, Ak
  • Seal Rocks - Between Montague And Hinchinbrook Islands, Ak

More Historic Weather Station data

Upgrade to MSW Pro to gain access to the past 30 days of data for over 8000 Wavebouys and Weather Stations around the globe.

Join Pro

Comparision Forecast

View Surf forecast
   
Sat 02/28 10:50pm 2ft 8s 6s 11 13 mph 1027.2mb 42f 39f
9:50pm 2ft 8s 5s 13 16 mph 1026.7mb 42f 39f
8:50pm 1.6ft 8s 6s 13 18 mph 1026.4mb 42f 40f
7:50pm 1.3ft 9s 6s 11
mph
1025.2mb 42f 39f
6:50pm 1.3ft 9s 5s 11 13 mph 1025.3mb 42f 39f
5:50pm 1.3ft 9s 5s 11 13 mph 1025.4mb 42f 39f
4:50pm 1.3ft 9s 5s 7 9 mph 1025.3mb 42f 40f
3:50pm 1.3ft 9s 4s 7
mph
1025.2mb 42f 40f
2:50pm 1.3ft 10s 5s 2 4 mph 1025.8mb 42f 40f
1:50pm 1.3ft 9s 6s 4
mph
1026.1mb 42f 40f
12:50pm 1.3ft 9s 6s 4
mph
1026.2mb 42f 40f
11:50am 1.3ft 10s 7s 7
mph
1026.4mb 42f 40f
10:50am 1.3ft 9s 7s 4 7 mph 1026.3mb 41f 39f
9:50am 1.6ft 10s 7s 7 9 mph 1026.3mb 41f 39f
8:50am 1.6ft 9s 7s 7
mph
1026.5mb 42f 39f
7:50am 1.6ft 8s 6s 4 7 mph 1026.6mb 42f 39f
6:50am 1.3ft 9s 6s 4 7 mph 1026.8mb 42f 39f
5:50am 1.6ft 10s 6s 9 11 mph 1027mb 42f 39f
4:50am 1.6ft 10s 6s 11 13 mph 1027.5mb 42f 39f
3:50am 1.6ft 10s 6s 4
mph
1027.9mb 42f 39f
2:50am 1.6ft 10s 6s 9
mph
1028.2mb 42f 39f
1:50am 1.6ft 11s 7s 9
mph
1028.3mb 42f 39f
12:50am 1.6ft 10s 6s 2 4 mph 1028.8mb 42f 40f
Fri 02/27 11:50pm 2ft 11s 6s 4 7 mph 1029.1mb 42f 40f
10:50pm 2ft 10s 7s 2 4 mph 1029.4mb 42f 40f
9:50pm 2ft 11s 6s 4
mph
1029.2mb 42f 40f
8:50pm 2ft 11s 7s 2 4 mph 1029.4mb 42f 40f
7:50pm 2ft 11s 7s 4 7 mph 1029.6mb 42f 40f
6:50pm 2ft 11s 7s 4
mph
1029.7mb 42f 40f
5:50pm 2ft 11s 7s 2 4 mph 1029.9mb 42f 40f
4:50pm 2ft 11s 7s 2 4 mph 1030.7mb 42f 39f
3:50pm 2ft 10s 7s 4 7 mph 1031mb 42f 40f
2:50pm 2ft 11s 7s 7 9 mph 1031.2mb 42f 39f
1:50pm 2.5ft 11s 8s 7 9 mph 1031.2mb 42f 39f
12:50pm 2.5ft 11s 8s 2 4 mph 1031.3mb 42f 38f
11:50am 2.5ft 11s 8s 2 4 mph 1031.2mb 42f 38f
10:50am 2.5ft 11s 7s 4 7 mph 1030.6mb 42f 38f
9:50am 2.5ft 11s 8s 2
mph
1030.8mb 42f 38f
8:50am 2.5ft 12s 7s  -  2 mph 1030.4mb 42f 38f
7:50am 2.5ft 10s 7s 2 4 mph 1030.4mb 42f 37f
6:50am 2.5ft 9s 7s 2 4 mph 1030.3mb 42f 38f
5:50am 2.5ft 10s 7s 2 4 mph 1030.6mb 42f 38f
4:50am 3ft 10s 8s 7
mph
1030.8mb 42f 39f
3:50am 2.5ft 10s 7s 4 7 mph 1030.8mb 42f 38f
2:50am 2.5ft 10s 7s 7 9 mph 1031mb 42f 39f
1:50am 3ft 10s 8s 7 9 mph 1030.9mb 42f 40f
12:50am 3ft 11s 8s 7 9 mph 1030.9mb 42f 40f
Thu 02/26 11:50pm 3ft 11s 8s 9 11 mph 1030.9mb 42f 40f
10:50pm 3ft 10s 8s 9 11 mph 1031mb 42f 40f
9:50pm 3.5ft 11s 8s 4 7 mph 1030.8mb 42f 40f
8:50pm 3.5ft 11s 8s 2 4 mph 1030.8mb 42f 40f
7:50pm 3.5ft 10s 8s 2 4 mph 1030.7mb 42f 40f
6:50pm 3.5ft 11s 8s  -  2 mph 1030.7mb 42f 40f
5:50pm 3.5ft 11s 8s 2
mph
1030.8mb 43f 40f
4:50pm 3.5ft 11s 8s 2
mph
1031mb 43f 41f
3:50pm 3.5ft 10s 7s 2 4 mph 1031.2mb 43f 40f
2:50pm 3.5ft 11s 8s 4 7 mph 1031.2mb 43f 40f
1:50pm 3.5ft 11s 8s 7 9 mph 1031.1mb 42f 40f
12:50pm 3.5ft 11s 8s 9 11 mph 1031mb 42f 40f
11:50am 3.5ft 11s 8s 11 13 mph 1030.8mb 42f 39f
10:50am 3.5ft 11s 8s 13 16 mph 1030.5mb 42f 39f
9:50am 3.5ft 11s 8s 13 16 mph 1030.1mb 42f 39f
8:50am 3.5ft 11s 7s 13 16 mph 1029.5mb 42f 38f
7:50am 4ft 8s 7s 16 18 mph 1029.3mb 42f 38f
6:50am 4.5ft 11s 8s 11 13 mph 1028.8mb 42f 38f
5:50am 5ft 9s 7s 13 16 mph 1028.8mb 42f 38f
4:50am 5.5ft 11s 8s 13 18 mph 1028.9mb 42f 38f
3:50am 5ft 11s 8s 16 18 mph 1028.8mb 42f 38f
2:50am 5ft 10s 7s 16 18 mph 1028.7mb 42f 38f
1:50am 4.5ft 10s 7s 13 16 mph 1028.8mb 42f 38f
12:50am 5ft 11s 8s 16 20 mph 1028.6mb 42f 38f
Wed 02/25 11:50pm 4.5ft 10s 8s 16 20 mph 1028.5mb 42f 38f
10:50pm 4.5ft 10s 7s 18 20 mph 1028.1mb 42f 39f
9:50pm 4.5ft 10s 7s 20 25 mph 1028mb 42f 39f
8:50pm 4.5ft 10s 7s 16 18 mph 1027.6mb 42f 39f
7:50pm 5ft 10s 8s 16 18 mph 1027.3mb 42f 40f
6:50pm 5ft 10s 7s 16 18 mph 1027.1mb 42f 40f
5:50pm 5ft 10s 7s 13 16 mph 1026.8mb 42f 41f
4:50pm 5.5ft 10s 7s 16 18 mph 1026.7mb 42f 41f
3:50pm 6ft 10s 7s 13 18 mph 1026.6mb 42f 41f
2:50pm 5ft 9s 7s 16 18 mph 1026.5mb 42f 40f
1:50pm 5ft 10s 7s 16 18 mph 1026.6mb 42f 40f
12:50pm 4.5ft 10s 7s 16 20 mph 1026.5mb 42f 40f
11:50am 4ft 10s 6s 16 20 mph 1026.4mb 42f 40f
10:50am 3.5ft 9s 7s 16 18 mph 1026.3mb 42f 40f
9:50am 3ft 10s 7s 13 16 mph 1026.3mb 42f 39f